Terminal Aerodrome Forecast
Issued by NWS Tallahassee, FL

Current Version | Previous Version | Text Only | Print | Product List | Glossary On
Versions: 1 2 3 4 5 6 7 8 9 10 11 12 13 14 15
000
FTUS42 KTAE 211100
TAFTLH
TAF
KTLH 211120Z 2112/2212 00000KT P6SM FEW250
     FM211300 06005KT P6SM FEW250
     FM220000 00000KT P6SM SKC=

USA.gov is the U.S. government's official web portal to all federal, state and local government web resources and services.